Time;durP1;ratioP1;P1;durP2;ratioP2;P2;SDS_P1;SDS_P2;PMS_P1;PMS_P2;Temp;Humidity;BMP_temperature;BMP_pressure;BME280_temperature;BME280_humidity;BME280_pressure;Samples;Min_cycle;Max_cycle;Signal;HPM_P1;HPM_P2
2021/10/04 00:01:06;;;;;;;5.28;2.33;;;11.50;99.90;;;;;;5054315;28;20032;-68
2021/10/04 00:03:32;;;;;;;3.30;2.17;;;11.50;99.90;;;;;;5053753;28;20025;-68
2021/10/04 00:05:57;;;;;;;2.67;1.80;;;11.50;99.90;;;;;;5053723;28;20082;-68
2021/10/04 00:08:23;;;;;;;2.72;1.70;;;11.50;99.90;;;;;;5053968;28;20382;-68
2021/10/04 00:10:49;;;;;;;4.07;1.70;;;11.50;99.90;;;;;;5053124;28;20416;-68
2021/10/04 00:13:14;;;;;;;2.83;1.60;;;11.50;99.90;;;;;;5054148;28;20090;-68
2021/10/04 00:15:40;;;;;;;3.42;1.67;;;11.50;99.90;;;;;;5053588;28;20025;-68
2021/10/04 00:18:06;;;;;;;4.95;2.10;;;11.50;99.90;;;;;;5053532;28;20021;-68
2021/10/04 00:20:31;;;;;;;5.68;1.80;;;11.40;99.90;;;;;;5052832;28;20029;-68
2021/10/04 00:22:58;;;;;;;2.78;1.90;;;11.50;99.90;;;;;;5052591;28;20029;-68
2021/10/04 00:25:23;;;;;;;3.97;1.63;;;11.50;99.90;;;;;;5053279;28;20371;-68
2021/10/04 00:27:49;;;;;;;3.05;1.42;;;11.40;99.90;;;;;;5053682;28;20062;-68
2021/10/04 00:30:16;;;;;;;4.90;1.70;;;11.40;99.90;;;;;;5053170;28;20056;-68
2021/10/04 00:32:45;;;;;;;4.68;1.98;;;11.30;99.90;;;;;;5053945;28;20032;-68
2021/10/04 00:35:12;;;;;;;3.05;1.50;;;11.30;99.90;;;;;;5052771;28;20025;-68
2021/10/04 00:37:38;;;;;;;3.78;1.75;;;11.20;99.90;;;;;;5053903;28;20079;-68
2021/10/04 00:40:07;;;;;;;3.30;1.73;;;11.20;99.90;;;;;;5053869;28;20418;-68
2021/10/04 00:42:33;;;;;;;5.00;2.10;;;11.20;99.90;;;;;;5053568;28;20441;-68
2021/10/04 00:44:59;;;;;;;5.47;1.75;;;11.20;99.90;;;;;;5053810;28;20059;-68
2021/10/04 00:47:24;;;;;;;6.53;1.95;;;11.20;99.90;;;;;;5053597;28;20100;-68
2021/10/04 00:49:50;;;;;;;4.03;1.27;;;11.20;99.90;;;;;;5053751;28;20493;-68
2021/10/04 00:52:16;;;;;;;4.75;1.70;;;11.30;99.90;;;;;;5053439;28;20113;-68
2021/10/04 00:54:41;;;;;;;3.13;1.48;;;11.30;99.90;;;;;;5053471;28;20025;-68
2021/10/04 00:57:07;;;;;;;4.50;1.60;;;11.30;99.90;;;;;;5053432;28;20528;-68
2021/10/04 00:59:33;;;;;;;5.60;1.55;;;11.30;99.90;;;;;;5053703;28;20057;-68
2021/10/04 01:01:59;;;;;;;2.50;1.30;;;11.30;99.90;;;;;;5053641;28;20021;-68
2021/10/04 01:04:26;;;;;;;5.25;1.95;;;11.30;99.90;;;;;;5052210;28;20048;-68
2021/10/04 01:06:56;;;;;;;5.95;1.85;;;11.40;99.90;;;;;;5053348;28;20032;-68
2021/10/04 01:09:23;;;;;;;6.07;1.40;;;11.30;99.90;;;;;;5053303;28;20021;-68
2021/10/04 01:11:49;;;;;;;5.47;1.45;;;11.40;99.90;;;;;;5052943;28;20419;-68
2021/10/04 01:14:15;;;;;;;3.22;1.50;;;11.30;99.90;;;;;;5052994;28;20029;-68
2021/10/04 01:16:40;;;;;;;5.38;1.67;;;11.30;99.90;;;;;;5053245;28;20025;-68
2021/10/04 01:19:06;;;;;;;4.07;1.27;;;11.30;99.90;;;;;;5053228;28;20032;-68
2021/10/04 01:21:31;;;;;;;5.43;1.48;;;11.30;99.90;;;;;;5053462;28;20029;-68
2021/10/04 01:23:57;;;;;;;1.30;1.15;;;11.30;99.90;;;;;;5053463;28;20466;-68
2021/10/04 01:26:24;;;;;;;4.35;1.38;;;11.40;99.90;;;;;;5051624;28;20021;-68
2021/10/04 01:28:51;;;;;;;6.45;1.48;;;11.50;99.90;;;;;;5052251;28;20489;-68
2021/10/04 01:31:22;;;;;;;4.10;1.40;;;11.40;99.90;;;;;;5052770;28;20077;-68
2021/10/04 01:33:48;;;;;;;2.78;1.42;;;11.40;99.90;;;;;;5052812;28;20025;-68
2021/10/04 01:36:15;;;;;;;4.85;1.40;;;11.50;99.90;;;;;;5053066;28;20031;-68
2021/10/04 01:38:40;;;;;;;4.70;1.45;;;11.40;99.90;;;;;;5054976;28;20451;-68
2021/10/04 01:41:06;;;;;;;4.07;1.40;;;11.40;99.90;;;;;;5055497;28;20029;-68
2021/10/04 01:43:31;;;;;;;2.90;1.42;;;11.40;99.90;;;;;;5056896;28;20078;-68
2021/10/04 01:45:57;;;;;;;4.25;1.48;;;11.30;99.90;;;;;;5056858;28;20056;-68
2021/10/04 01:48:23;;;;;;;6.03;1.42;;;11.30;99.90;;;;;;5056818;28;20033;-68
2021/10/04 01:50:48;;;;;;;3.60;1.27;;;11.20;99.90;;;;;;5056176;28;20021;-68
2021/10/04 01:53:14;;;;;;;7.10;1.60;;;11.20;99.90;;;;;;5056754;28;20032;-68
2021/10/04 01:55:40;;;;;;;4.88;1.40;;;11.10;99.90;;;;;;5055220;28;20441;-68
2021/10/04 01:58:05;;;;;;;3.78;1.30;;;11.10;99.90;;;;;;5056668;28;20025;-68
2021/10/04 02:00:32;;;;;;;6.93;1.60;;;11.00;99.90;;;;;;5056584;28;20025;-68
2021/10/04 02:02:58;;;;;;;3.83;1.58;;;10.90;99.90;;;;;;5056274;28;20375;-68
2021/10/04 02:05:27;;;;;;;1.25;0.90;;;10.80;99.90;;;;;;5055508;28;20040;-68
2021/10/04 02:07:53;;;;;;;2.38;1.20;;;10.80;99.90;;;;;;5056443;28;20049;-68
2021/10/04 02:10:23;;;;;;;1.98;1.15;;;10.60;99.90;;;;;;5056336;28;20068;-68
2021/10/04 02:12:48;;;;;;;3.45;1.20;;;10.50;99.90;;;;;;5055820;28;20071;-68
2021/10/04 02:15:14;;;;;;;4.35;1.73;;;10.40;99.90;;;;;;5056309;28;20029;-68
2021/10/04 02:17:40;;;;;;;2.67;1.20;;;10.30;99.90;;;;;;5056237;28;20466;-68
2021/10/04 02:20:09;;;;;;;3.35;1.40;;;10.20;99.90;;;;;;5055920;28;20040;-68
2021/10/04 02:22:35;;;;;;;3.20;1.42;;;10.10;99.90;;;;;;5056167;28;20018;-68
2021/10/04 02:25:01;;;;;;;1.38;1.27;;;10.10;99.90;;;;;;5056137;28;20044;-68
2021/10/04 02:27:26;;;;;;;2.33;1.23;;;10.00;99.90;;;;;;5055780;28;20028;-68
2021/10/04 02:29:52;;;;;;;2.58;1.35;;;9.90;99.90;;;;;;5053968;28;20037;-68
2021/10/04 02:32:17;;;;;;;4.70;1.75;;;9.80;99.90;;;;;;5055352;28;20033;-68
2021/10/04 02:34:43;;;;;;;2.78;1.40;;;9.80;99.90;;;;;;5055675;28;20032;-68
2021/10/04 02:37:09;;;;;;;4.55;2.05;;;9.70;99.90;;;;;;5054750;28;20114;-68
2021/10/04 02:39:34;;;;;;;4.80;1.60;;;9.70;99.90;;;;;;5055866;28;20036;-68
2021/10/04 02:42:00;;;;;;;3.13;1.90;;;9.60;99.90;;;;;;5055510;28;20067;-68
2021/10/04 02:44:26;;;;;;;3.47;1.40;;;9.60;99.90;;;;;;5054324;28;20021;-68
2021/10/04 02:46:51;;;;;;;2.88;1.63;;;9.60;99.90;;;;;;5055123;28;20470;-68
2021/10/04 02:49:17;;;;;;;2.35;1.20;;;9.60;99.90;;;;;;5055661;28;20104;-68
2021/10/04 02:51:43;;;;;;;3.30;1.38;;;9.50;99.90;;;;;;5055267;28;20029;-68
2021/10/04 02:54:08;;;;;;;4.65;1.45;;;9.50;99.90;;;;;;5055533;28;20090;-67
2021/10/04 02:56:34;;;;;;;3.83;1.63;;;9.50;99.90;;;;;;5055546;28;20104;-68
2021/10/04 02:59:00;;;;;;;3.10;1.83;;;9.50;99.90;;;;;;5054947;28;20103;-68
2021/10/04 03:01:25;;;;;;;8.10;1.58;;;9.50;99.90;;;;;;5054041;28;20125;-67
2021/10/04 03:03:51;;;;;;;1.88;1.45;;;9.60;99.90;;;;;;5055420;28;20104;-68
2021/10/04 03:06:17;;;;;;;2.67;1.73;;;9.60;99.90;;;;;;5055070;28;20032;-68
2021/10/04 03:08:42;;;;;;;3.40;1.55;;;9.50;99.90;;;;;;5055341;28;20107;-68
2021/10/04 03:11:08;;;;;;;3.17;1.70;;;9.50;99.90;;;;;;5055166;28;20467;-68
2021/10/04 03:13:33;;;;;;;4.30;1.65;;;9.50;99.90;;;;;;5054907;28;20025;-68
2021/10/04 03:15:59;;;;;;;3.38;1.73;;;9.50;99.90;;;;;;5054891;28;20017;-68
2021/10/04 03:18:25;;;;;;;6.03;1.50;;;9.50;99.90;;;;;;5054560;28;20148;-68
2021/10/04 03:20:50;;;;;;;3.30;1.77;;;9.40;99.90;;;;;;5054768;28;20524;-68
2021/10/04 03:23:16;;;;;;;2.33;1.65;;;9.40;99.90;;;;;;5054713;28;20433;-68
2021/10/04 03:25:41;;;;;;;4.97;1.73;;;9.50;99.90;;;;;;5054953;28;20032;-68
2021/10/04 03:28:07;;;;;;;5.47;1.73;;;9.50;99.90;;;;;;5054894;28;20037;-68
2021/10/04 03:30:33;;;;;;;3.90;1.42;;;9.50;99.90;;;;;;5054271;28;20052;-68
2021/10/04 03:33:00;;;;;;;4.75;2.97;;;9.50;99.90;;;;;;5054835;28;20021;-68
2021/10/04 03:35:26;;;;;;;4.25;1.85;;;9.50;99.90;;;;;;5054520;28;20028;-68
2021/10/04 03:37:52;;;;;;;5.15;1.98;;;9.50;99.90;;;;;;5054750;28;20029;-68
2021/10/04 03:40:18;;;;;;;6.20;1.80;;;9.70;99.90;;;;;;5054691;28;20446;-68
2021/10/04 03:42:44;;;;;;;3.20;1.90;;;9.70;99.90;;;;;;5052883;28;20054;-68
2021/10/04 03:45:11;;;;;;;3.20;1.80;;;9.90;99.90;;;;;;5054327;28;20104;-68
2021/10/04 03:47:36;;;;;;;4.78;1.80;;;10.00;99.90;;;;;;5054578;28;20560;-68
2021/10/04 03:50:05;;;;;;;6.80;1.92;;;10.20;99.90;;;;;;5054473;28;20089;-68
2021/10/04 03:52:31;;;;;;;4.93;2.22;;;10.30;99.90;;;;;;5053934;28;20074;-68
2021/10/04 03:54:56;;;;;;;4.57;1.60;;;10.40;99.90;;;;;;5054462;28;20100;-68
2021/10/04 03:57:22;;;;;;;3.85;1.67;;;10.40;99.90;;;;;;5054102;28;20060;-68
2021/10/04 03:59:47;;;;;;;3.67;2.05;;;10.50;99.90;;;;;;5054357;28;20056;-68
2021/10/04 04:02:13;;;;;;;2.17;1.38;;;10.70;99.90;;;;;;5053630;28;20079;-68
2021/10/04 04:04:39;;;;;;;5.13;1.80;;;10.70;99.90;;;;;;5054295;28;20438;-68
2021/10/04 04:07:06;;;;;;;3.42;2.10;;;10.80;99.90;;;;;;5054258;28;20079;-68
2021/10/04 04:09:32;;;;;;;2.80;1.80;;;10.90;99.90;;;;;;5053671;28;20048;-68
2021/10/04 04:11:57;;;;;;;4.40;1.80;;;10.90;99.90;;;;;;5054107;28;20060;-68
2021/10/04 04:14:23;;;;;;;3.15;1.60;;;11.00;99.90;;;;;;5053886;28;20017;-68
2021/10/04 04:16:48;;;;;;;3.20;1.70;;;11.10;99.90;;;;;;5054078;28;20429;-68
2021/10/04 04:19:14;;;;;;;3.92;1.52;;;11.10;99.90;;;;;;5053527;28;20032;-68
2021/10/04 04:21:42;;;;;;;4.93;1.58;;;11.10;99.90;;;;;;5054048;28;20094;-68
2021/10/04 04:24:08;;;;;;;9.95;1.58;;;11.10;99.90;;;;;;5053728;28;20070;-68
2021/10/04 04:26:33;;;;;;;3.25;1.55;;;11.00;99.90;;;;;;5052529;28;20033;-68
2021/10/04 04:28:59;;;;;;;4.38;1.27;;;11.10;99.90;;;;;;5053723;28;20419;-68
2021/10/04 04:31:25;;;;;;;6.57;2.10;;;11.10;99.90;;;;;;5053235;28;20045;-68
2021/10/04 04:33:50;;;;;;;7.18;1.35;;;11.10;99.90;;;;;;5053929;28;20036;-68
2021/10/04 04:36:16;;;;;;;1.73;1.17;;;11.20;99.90;;;;;;5053917;28;20028;-68
2021/10/04 04:38:41;;;;;;;5.90;1.40;;;11.20;99.90;;;;;;5052686;28;20029;-68
2021/10/04 04:41:07;;;;;;;3.22;1.23;;;11.30;99.90;;;;;;5052593;28;20466;-68
2021/10/04 04:43:32;;;;;;;4.35;1.58;;;11.30;99.90;;;;;;5053860;28;20040;-68
2021/10/04 04:45:58;;;;;;;4.70;1.20;;;11.30;99.90;;;;;;5053553;28;20032;-68
2021/10/04 04:48:24;;;;;;;1.73;1.05;;;11.40;99.90;;;;;;5053513;28;20033;-68
2021/10/04 04:50:49;;;;;;;3.05;1.30;;;11.30;99.90;;;;;;5053688;28;20021;-68
2021/10/04 04:53:15;;;;;;;4.18;1.50;;;11.40;99.90;;;;;;5053217;28;20025;-68
2021/10/04 04:55:41;;;;;;;4.75;1.27;;;11.40;99.90;;;;;;5053205;28;20036;-68
2021/10/04 04:58:06;;;;;;;7.22;2.15;;;11.40;99.90;;;;;;5053433;28;20071;-68
2021/10/04 05:00:33;;;;;;;3.72;1.42;;;11.40;99.90;;;;;;5053609;28;20103;-68
2021/10/04 05:02:58;;;;;;;5.78;2.22;;;11.50;99.90;;;;;;5053389;28;20112;-68
2021/10/04 05:05:24;;;;;;;3.30;1.70;;;11.50;99.90;;;;;;5053652;28;20116;-68
2021/10/04 05:07:50;;;;;;;3.53;1.42;;;11.50;99.90;;;;;;5053605;28;20049;-68
2021/10/04 05:10:15;;;;;;;3.78;1.88;;;11.50;99.90;;;;;;5052256;28;20507;-68
2021/10/04 05:12:41;;;;;;;4.95;2.10;;;11.60;99.90;;;;;;5053779;28;20025;-68
2021/10/04 05:15:08;;;;;;;2.60;1.70;;;11.60;99.90;;;;;;5057165;28;20029;-68
2021/10/04 05:17:35;;;;;;;3.15;1.23;;;11.60;99.90;;;;;;5057120;28;20459;-68
2021/10/04 05:20:00;;;;;;;3.13;1.50;;;11.50;99.90;;;;;;5057310;28;20052;-68
2021/10/04 05:22:26;;;;;;;5.85;1.60;;;11.50;99.90;;;;;;5057306;28;20059;-68
2021/10/04 05:24:52;;;;;;;7.18;1.50;;;11.50;99.90;;;;;;5056982;28;20033;-68
2021/10/04 05:27:18;;;;;;;2.92;1.40;;;11.50;99.90;;;;;;5056965;28;20597;-68
2021/10/04 05:29:43;;;;;;;4.25;1.55;;;11.60;99.90;;;;;;5057142;28;20366;-68
2021/10/04 05:32:09;;;;;;;2.88;1.25;;;11.70;99.90;;;;;;5056769;28;20040;-68
2021/10/04 05:34:34;;;;;;;1.52;1.20;;;11.70;99.90;;;;;;5057040;28;20028;-68
2021/10/04 05:37:00;;;;;;;5.15;1.67;;;11.70;99.90;;;;;;5056772;28;20051;-68
2021/10/04 05:39:26;;;;;;;5.22;1.30;;;11.80;99.90;;;;;;5056671;28;20021;-69
2021/10/04 05:41:52;;;;;;;2.45;1.52;;;11.70;99.90;;;;;;5055449;28;20032;-68
2021/10/04 05:44:17;;;;;;;3.83;1.55;;;11.80;99.90;;;;;;5056626;28;20112;-68
2021/10/04 05:46:43;;;;;;;3.70;1.58;;;11.70;99.90;;;;;;5056894;28;20120;-68
2021/10/04 05:49:08;;;;;;;4.15;1.52;;;11.70;99.90;;;;;;5056526;28;20120;-68
2021/10/04 05:51:34;;;;;;;5.40;1.40;;;11.70;99.90;;;;;;5056406;28;20036;-68
2021/10/04 05:54:00;;;;;;;3.90;1.40;;;11.80;99.90;;;;;;5056705;28;20482;-68
2021/10/04 05:56:25;;;;;;;4.03;1.15;;;11.80;99.90;;;;;;5056577;28;20086;-68
2021/10/04 05:58:51;;;;;;;8.65;1.45;;;11.90;99.90;;;;;;5055892;28;20108;-68
2021/10/04 06:01:16;;;;;;;1.98;1.40;;;11.90;99.90;;;;;;5056434;28;20025;-68
2021/10/04 06:03:42;;;;;;;3.92;1.30;;;11.90;99.90;;;;;;5055896;28;20536;-68
2021/10/04 06:06:07;;;;;;;3.53;1.50;;;11.90;99.90;;;;;;5056305;28;20029;-68
2021/10/04 06:08:33;;;;;;;1.23;0.90;;;12.00;99.90;;;;;;5048406;28;20037;-68
2021/10/04 06:10:59;;;;;;;2.88;1.13;;;12.00;99.90;;;;;;5035886;28;20383;-68
2021/10/04 06:13:24;;;;;;;3.28;1.75;;;12.00;99.90;;;;;;5036882;28;20104;-68
2021/10/04 06:15:50;;;;;;;4.90;1.35;;;12.00;99.90;;;;;;5036222;28;20022;-68
2021/10/04 06:18:15;;;;;;;7.38;1.50;;;12.00;99.90;;;;;;5037711;28;20124;-68
2021/10/04 06:20:42;;;;;;;4.45;1.50;;;12.00;99.90;;;;;;5035919;28;20095;-68
2021/10/04 06:23:08;;;;;;;2.97;1.38;;;12.00;99.90;;;;;;5038675;28;20032;-68
2021/10/04 06:25:34;;;;;;;2.38;1.20;;;12.10;99.90;;;;;;5055642;28;20043;-68
2021/10/04 06:28:00;;;;;;;3.53;1.08;;;12.10;99.90;;;;;;5053363;28;20538;-68
2021/10/04 06:30:26;;;;;;;3.47;1.50;;;12.10;99.90;;;;;;5048831;28;20049;-69
2021/10/04 06:32:51;;;;;;;5.18;1.70;;;12.10;99.90;;;;;;5049225;28;20017;-68
2021/10/04 06:35:17;;;;;;;4.05;1.70;;;12.20;99.90;;;;;;5054836;28;20025;-68
2021/10/04 06:37:43;;;;;;;7.47;1.70;;;12.20;99.90;;;;;;5040273;28;20076;-68
2021/10/04 06:40:09;;;;;;;4.55;2.22;;;12.20;99.90;;;;;;5040773;28;20401;-68
2021/10/04 06:42:36;;;;;;;6.55;3.03;;;12.20;99.90;;;;;;5059481;28;20025;-68
2021/10/04 06:45:03;;;;;;;5.70;2.50;;;12.20;99.90;;;;;;5056300;28;20028;-69
2021/10/04 06:47:29;;;;;;;7.18;2.42;;;12.20;99.90;;;;;;5047084;28;20056;-68
2021/10/04 06:49:54;;;;;;;8.88;3.20;;;12.20;99.90;;;;;;5059437;28;20064;-68
2021/10/04 06:52:20;;;;;;;7.22;3.35;;;12.20;99.90;;;;;;5055034;28;20021;-68
2021/10/04 06:54:46;;;;;;;5.95;3.08;;;12.20;99.90;;;;;;5054028;28;20037;-68
2021/10/04 06:57:12;;;;;;;4.78;2.80;;;12.20;99.90;;;;;;5054821;28;20044;-68
2021/10/04 06:59:37;;;;;;;4.05;2.65;;;12.30;99.90;;;;;;5053318;28;20402;-68
2021/10/04 07:02:03;;;;;;;4.50;2.80;;;12.30;99.90;;;;;;5053405;28;20041;-68
2021/10/04 07:04:29;;;;;;;8.20;2.95;;;12.40;99.90;;;;;;5053292;28;20063;-68
2021/10/04 07:06:55;;;;;;;7.60;2.17;;;12.40;99.90;;;;;;5052969;28;20029;-68
2021/10/04 07:09:21;;;;;;;3.40;2.20;;;12.40;99.90;;;;;;5053123;28;20032;-69
2021/10/04 07:11:46;;;;;;;11.45;2.92;;;12.50;99.90;;;;;;5053970;28;20035;-68
2021/10/04 07:14:12;;;;;;;7.05;3.20;;;12.50;99.90;;;;;;5054244;28;20017;-68
2021/10/04 07:16:38;;;;;;;6.22;3.55;;;12.50;99.90;;;;;;5049454;28;20095;-68
2021/10/04 07:19:03;;;;;;;7.60;3.03;;;12.50;99.90;;;;;;5053735;28;20071;-68
2021/10/04 07:21:30;;;;;;;5.78;2.85;;;12.60;99.90;;;;;;5053202;28;20021;-68
2021/10/04 07:23:56;;;;;;;6.25;2.30;;;12.70;99.90;;;;;;5051399;28;20025;-68
2021/10/04 07:26:22;;;;;;;7.78;2.58;;;12.70;99.90;;;;;;5053798;28;20393;-68
2021/10/04 07:28:49;;;;;;;6.57;2.50;;;12.80;99.90;;;;;;5052352;28;20028;-68
2021/10/04 07:31:15;;;;;;;3.67;2.38;;;12.80;99.90;;;;;;5052982;28;20065;-68
2021/10/04 07:33:40;;;;;;;6.15;2.13;;;12.90;99.90;;;;;;5053292;28;20064;-68
2021/10/04 07:36:06;;;;;;;4.78;2.53;;;13.00;99.90;;;;;;5052404;28;20028;-68
2021/10/04 07:38:33;;;;;;;4.60;2.17;;;13.00;99.90;;;;;;5052598;28;20025;-68
2021/10/04 07:40:58;;;;;;;4.47;2.28;;;13.00;99.90;;;;;;5052733;28;20063;-68
2021/10/04 07:43:24;;;;;;;7.78;2.20;;;13.00;99.90;;;;;;5035653;28;20061;-68
2021/10/04 07:45:50;;;;;;;9.40;2.30;;;13.10;99.90;;;;;;5035442;28;20426;-69
2021/10/04 07:48:15;;;;;;;5.00;1.70;;;13.10;99.90;;;;;;5051644;28;20036;-68
2021/10/04 07:50:44;;;;;;;6.00;1.95;;;13.10;99.90;;;;;;5052750;28;20033;-68
2021/10/04 07:53:11;;;;;;;5.30;2.10;;;13.10;99.90;;;;;;5052166;28;20024;-68
2021/10/04 07:55:39;;;;;;;4.50;1.60;;;13.10;99.90;;;;;;5053344;28;20108;-69
2021/10/04 07:58:04;;;;;;;10.80;2.42;;;13.10;99.90;;;;;;5048355;28;20021;-69
2021/10/04 08:00:30;;;;;;;5.50;1.60;;;13.20;99.90;;;;;;5052870;28;20036;-68
2021/10/04 08:02:56;;;;;;;5.95;1.60;;;13.20;99.90;;;;;;5053209;28;20040;-68
2021/10/04 08:05:21;;;;;;;9.15;1.63;;;13.30;99.90;;;;;;5048837;28;20078;-69
2021/10/04 08:07:47;;;;;;;1.83;1.40;;;13.30;99.90;;;;;;5053014;28;20414;-69
2021/10/04 08:10:13;;;;;;;8.07;1.20;;;13.40;99.90;;;;;;5052283;28;20118;-68
2021/10/04 08:12:39;;;;;;;5.65;1.42;;;13.40;99.90;;;;;;5053246;28;20021;-68
2021/10/04 08:15:06;;;;;;;5.32;1.50;;;13.50;99.90;;;;;;5050324;28;20017;-68
2021/10/04 08:17:33;;;;;;;4.25;1.70;;;13.40;99.90;;;;;;5067487;28;20025;-68
2021/10/04 08:19:59;;;;;;;5.30;1.80;;;13.40;99.90;;;;;;5049472;28;20053;-68
2021/10/04 08:22:24;;;;;;;5.63;1.42;;;13.40;99.90;;;;;;5050101;28;20382;-69
2021/10/04 08:24:50;;;;;;;5.22;1.70;;;13.40;99.90;;;;;;5051168;28;20033;-69
2021/10/04 08:27:16;;;;;;;8.23;1.52;;;13.50;99.90;;;;;;5052764;28;20090;-69
2021/10/04 08:29:41;;;;;;;3.65;1.60;;;13.50;99.90;;;;;;5052882;28;20025;-68
2021/10/04 08:32:07;;;;;;;5.75;1.30;;;13.60;99.90;;;;;;5052644;28;20051;-69
2021/10/04 08:34:33;;;;;;;2.60;1.45;;;13.70;99.90;;;;;;5052364;28;20033;-68
2021/10/04 08:36:58;;;;;;;5.28;1.48;;;13.70;99.90;;;;;;5052693;28;20431;-69
2021/10/04 08:39:24;;;;;;;3.33;1.20;;;13.80;99.90;;;;;;5052891;28;20128;-68
2021/10/04 08:41:52;;;;;;;4.47;1.42;;;13.90;99.90;;;;;;5052492;28;20128;-68
2021/10/04 08:44:17;;;;;;;6.00;1.48;;;14.20;99.90;;;;;;5051020;28;20111;-69
2021/10/04 08:46:46;;;;;;;2.90;1.60;;;14.40;99.90;;;;;;5044565;28;20577;-69
2021/10/04 08:49:14;;;;;;;4.88;1.45;;;14.60;99.90;;;;;;5045276;28;20102;-69
2021/10/04 08:51:39;;;;;;;4.28;1.50;;;14.80;99.90;;;;;;5043609;28;20082;-69
2021/10/04 08:54:06;;;;;;;7.32;1.55;;;15.00;99.90;;;;;;5044854;28;20104;-69
2021/10/04 08:56:32;;;;;;;4.75;1.40;;;15.00;99.90;;;;;;5049253;28;20014;-69
2021/10/04 08:58:58;;;;;;;5.07;1.45;;;15.10;99.90;;;;;;5043668;28;20490;-69
2021/10/04 09:01:24;;;;;;;2.65;1.35;;;15.00;99.90;;;;;;5055182;28;20029;-68
2021/10/04 09:03:54;;;;;;;2.95;1.00;;;15.10;99.90;;;;;;5053679;28;20033;-69
2021/10/04 09:06:27;;;;;;;3.65;1.25;;;15.00;99.90;;;;;;5047367;28;20025;-69
2021/10/04 09:08:54;;;;;;;5.80;1.30;;;15.10;99.90;;;;;;5050868;28;20075;-69
2021/10/04 09:11:43;;;;;;;2.17;1.42;;;15.10;99.90;;;;;;5038868;28;20376;-69
2021/10/04 09:14:12;;;;;;;3.30;1.15;;;15.20;99.90;;;;;;5051230;28;20020;-68
2021/10/04 09:16:59;;;;;;;8.05;1.40;;;15.20;99.90;;;;;;5045770;28;20115;-69
2021/10/04 09:19:31;;;;;;;2.88;1.20;;;15.20;99.90;;;;;;5037477;28;20569;-69
2021/10/04 09:22:08;;;;;;;5.68;1.48;;;15.30;99.90;;;;;;5042953;28;20033;-69
2021/10/04 09:24:37;;;;;;;1.55;1.10;;;15.50;99.90;;;;;;5054687;28;20036;-68
2021/10/04 09:27:02;;;;;;;3.95;1.13;;;15.60;99.90;;;;;;5053954;28;20029;-68
2021/10/04 09:29:46;;;;;;;4.28;1.30;;;15.50;99.90;;;;;;5042220;28;20033;-69
2021/10/04 09:32:12;;;;;;;5.55;1.10;;;15.50;99.90;;;;;;5039984;28;20037;-69
2021/10/04 09:34:37;;;;;;;5.07;1.73;;;15.60;99.90;;;;;;5056117;28;20033;-68
2021/10/04 09:37:03;;;;;;;5.20;1.25;;;15.50;99.90;;;;;;5045109;28;20017;-68
2021/10/04 09:39:31;;;;;;;7.80;1.40;;;15.60;99.90;;;;;;5055584;28;20051;-69
2021/10/04 09:42:14;;;;;;;4.32;1.10;;;15.70;99.90;;;;;;5051212;28;20026;-68
2021/10/04 09:50:09;;;;;;;2.92;1.20;;;15.70;99.90;;;;;;5064207;28;20370;-69
2021/10/04 09:52:53;;;;;;;3.88;1.20;;;15.60;99.90;;;;;;5047126;28;20036;-69
2021/10/04 09:55:28;;;;;;;;;;;15.60;99.90;;;;;;5050583;28;20048;-68
2021/10/04 09:57:57;;;;;;;3.88;1.17;;;15.60;99.90;;;;;;5050567;28;19909;-69
2021/10/04 10:00:25;;;;;;;3.33;1.40;;;15.60;99.90;;;;;;5050036;28;20021;-68
2021/10/04 10:02:55;;;;;;;2.88;1.10;;;15.60;99.90;;;;;;5049407;28;20489;-69
2021/10/04 10:05:26;;;;;;;6.25;1.20;;;15.50;99.90;;;;;;5049196;28;20025;-68
2021/10/04 10:07:52;;;;;;;4.47;1.50;;;15.50;99.90;;;;;;5042326;28;20471;-68
2021/10/04 10:10:19;;;;;;;4.63;0.98;;;15.60;99.90;;;;;;5034622;28;20378;-69
2021/10/04 10:12:45;;;;;;;2.50;1.00;;;15.70;99.90;;;;;;5049168;28;20029;-69
2021/10/04 10:15:20;;;;;;;7.43;1.45;;;15.60;99.90;;;;;;5048598;28;20017;-69
2021/10/04 10:17:48;;;;;;;1.55;1.10;;;16.00;99.90;;;;;;5044695;28;20029;-69
2021/10/04 10:20:17;;;;;;;5.57;1.40;;;16.30;99.90;;;;;;5048382;28;20017;-69
2021/10/04 10:22:45;;;;;;;4.05;1.25;;;16.90;99.90;;;;;;5049022;28;20071;-69
2021/10/04 10:25:34;;;;;;;3.28;1.20;;;17.10;99.90;;;;;;5048104;28;20386;-69
2021/10/04 10:28:01;;;;;;;1.65;1.10;;;16.70;99.90;;;;;;5048103;28;20021;-69
2021/10/04 10:30:28;;;;;;;3.17;1.10;;;16.50;99.90;;;;;;5048869;28;20164;-69
2021/10/04 10:32:55;;;;;;;9.77;1.63;;;16.50;99.90;;;;;;5046109;28;20167;-69
2021/10/04 10:35:48;;;;;;;2.00;0.95;;;16.30;99.90;;;;;;5049411;28;20394;-69
2021/10/04 10:38:17;;;;;;;4.07;1.00;;;16.40;99.90;;;;;;5049006;28;20036;-69
2021/10/04 10:41:18;;;;;;;2.80;1.05;;;16.20;99.90;;;;;;5049624;28;20431;-69
2021/10/04 10:44:06;;;;;;;4.85;1.33;;;16.20;99.90;;;;;;5049163;28;20494;-69
2021/10/04 10:46:53;;;;;;;3.78;1.20;;;16.70;99.90;;;;;;5049362;28;21836;-69
2021/10/04 10:49:58;;;;;;;3.88;1.17;;;17.00;99.90;;;;;;5047817;28;20053;-69
2021/10/04 10:52:28;;;;;;;3.92;1.30;;;17.00;99.90;;;;;;5047583;28;20033;-69
2021/10/04 10:54:55;;;;;;;3.63;1.08;;;17.20;99.90;;;;;;5048584;28;20024;-69
2021/10/04 10:57:24;;;;;;;6.93;2.17;;;17.10;99.90;;;;;;5048862;28;20015;-69
2021/10/04 11:00:13;;;;;;;2.58;1.15;;;17.20;99.90;;;;;;5043908;28;20072;-69
2021/10/04 11:02:59;;;;;;;3.53;1.17;;;17.30;99.90;;;;;;5034521;28;20040;-69
2021/10/04 11:05:47;;;;;;;4.38;1.10;;;17.40;99.90;;;;;;5034903;28;20060;-69
2021/10/04 11:13:39;;;;;;;6.07;1.08;;;17.50;99.90;;;;;;5110056;27;20325;-69
2021/10/04 11:18:47;;;;;;;2.40;1.20;;;18.00;99.90;;;;;;5088447;28;20421;-68
2021/10/04 11:21:16;;;;;;;5.45;1.52;;;18.30;99.90;;;;;;5072114;28;20024;-69
2021/10/04 11:23:46;;;;;;;7.82;1.45;;;18.50;99.90;;;;;;5076667;28;20028;-69
2021/10/04 11:26:14;;;;;;;8.60;1.88;;;18.60;99.90;;;;;;5074220;28;20108;-68
2021/10/04 11:28:44;;;;;;;5.13;1.20;;;18.70;99.90;;;;;;5061597;28;20025;-68
2021/10/04 11:31:13;;;;;;;3.42;0.90;;;18.80;99.90;;;;;;5064303;28;20466;-68
2021/10/04 11:33:56;;;;;;;5.65;1.23;;;18.50;99.90;;;;;;5069470;28;20033;-69
2021/10/04 11:36:28;;;;;;;5.28;1.20;;;18.10;99.90;;;;;;5072293;28;20039;-68
2021/10/04 11:38:57;;;;;;;3.05;1.00;;;17.90;99.90;;;;;;5067754;28;20025;-69
2021/10/04 11:41:29;;;;;;;5.38;1.15;;;17.90;99.90;;;;;;5068497;28;20032;-69
2021/10/04 11:43:57;;;;;;;4.50;0.85;;;18.20;99.90;;;;;;5068906;28;20049;-69
2021/10/04 11:46:26;;;;;;;2.60;0.85;;;18.30;99.90;;;;;;5068716;28;20021;-69
2021/10/04 11:49:10;;;;;;;5.63;1.13;;;18.30;99.90;;;;;;5069828;28;20032;-69
2021/10/04 11:51:45;;;;;;;3.00;0.98;;;18.40;99.90;;;;;;5072132;28;20020;-68
2021/10/04 11:54:13;;;;;;;4.00;1.17;;;18.50;99.90;;;;;;5081168;28;20358;-68
2021/10/04 11:56:39;;;;;;;5.20;1.38;;;18.50;99.90;;;;;;5085720;28;20041;-68
2021/10/04 11:59:06;;;;;;;7.18;1.00;;;18.20;99.90;;;;;;5069100;28;20021;-68
2021/10/04 12:01:40;;;;;;;3.78;1.10;;;18.30;99.90;;;;;;5069554;28;20027;-68
2021/10/04 12:06:44;;;;;;;5.40;1.05;;;18.40;99.90;;;;;;5108188;27;20090;-68
2021/10/04 12:09:15;;;;;;;5.50;1.10;;;18.40;99.90;;;;;;5094066;28;20107;-68
2021/10/04 12:11:58;;;;;;;3.78;0.80;;;18.50;99.90;;;;;;5094077;28;20022;-68
2021/10/04 12:14:26;;;;;;;3.25;1.10;;;18.50;99.90;;;;;;5090830;28;20016;-68
2021/10/04 12:16:58;;;;;;;3.08;0.90;;;18.20;99.90;;;;;;5091682;28;20021;-68
2021/10/04 12:19:24;;;;;;;5.10;1.00;;;18.50;99.90;;;;;;5093792;28;20116;-68
2021/10/04 12:21:50;;;;;;;5.78;0.90;;;18.30;99.90;;;;;;5090300;28;20048;-68
2021/10/04 12:24:20;;;;;;;4.40;1.13;;;18.30;99.90;;;;;;5097662;28;20107;-68
2021/10/04 12:26:54;;;;;;;2.75;1.02;;;18.10;99.90;;;;;;5090052;28;20126;-68
2021/10/04 12:29:47;;;;;;;2.53;0.82;;;18.40;99.90;;;;;;5088527;28;20028;-68
2021/10/04 12:32:37;;;;;;;2.83;1.00;;;18.50;99.90;;;;;;5110178;28;20485;-69
2021/10/04 12:35:14;;;;;;;3.10;0.82;;;18.50;99.90;;;;;;5095521;28;20046;-69
2021/10/04 12:37:57;;;;;;;1.63;0.70;;;18.60;99.90;;;;;;5090136;28;20493;-68
2021/10/04 12:40:31;;;;;;;4.70;1.08;;;18.50;99.90;;;;;;5095579;28;20024;-69
2021/10/04 12:43:03;;;;;;;5.93;1.23;;;18.60;99.90;;;;;;5110083;28;20503;-69
2021/10/04 12:45:29;;;;;;;3.28;1.00;;;18.80;99.90;;;;;;5095368;28;20035;-69
2021/10/04 12:47:57;;;;;;;3.17;1.10;;;18.80;99.90;;;;;;5089981;28;20047;-68
2021/10/04 12:50:25;;;;;;;6.97;0.90;;;18.80;99.90;;;;;;5082984;28;20347;-68
2021/10/04 12:52:53;;;;;;;6.32;1.08;;;19.00;99.90;;;;;;5100393;28;20115;-68
2021/10/04 12:55:20;;;;;;;5.65;0.93;;;19.10;99.90;;;;;;5083183;28;20030;-68
2021/10/04 12:57:51;;;;;;;4.38;0.80;;;18.90;99.90;;;;;;5093088;28;20027;-68
2021/10/04 13:00:28;;;;;;;1.83;0.90;;;19.00;99.90;;;;;;5082426;28;20017;-68
2021/10/04 13:02:58;;;;;;;8.55;1.38;;;19.00;99.90;;;;;;5100008;28;20028;-68
2021/10/04 13:05:24;;;;;;;5.38;1.20;;;18.90;99.90;;;;;;5089585;28;20489;-68
2021/10/04 13:07:49;;;;;;;4.00;0.90;;;19.00;99.90;;;;;;5098974;28;20032;-68